sensor_id;sensor_type;location;lat;lon;timestamp;pressure;altitude;pressure_sealevel;temperature;humidity
65175;BME280;51761;42.126;24.752;2023-07-29T00:01:06;99295.19;;;22.82;52.73
65175;BME280;51761;42.126;24.752;2023-07-29T00:03:31;99290.81;;;22.87;48.63
65175;BME280;51761;42.126;24.752;2023-07-29T00:05:57;99280.72;;;22.75;48.12
65175;BME280;51761;42.126;24.752;2023-07-29T00:08:23;99291.81;;;22.78;48.39
65175;BME280;51761;42.126;24.752;2023-07-29T00:10:48;99265.41;;;22.72;45.49
65175;BME280;51761;42.126;24.752;2023-07-29T00:13:14;99290.28;;;22.83;50.41
65175;BME280;51761;42.126;24.752;2023-07-29T00:15:39;99266.94;;;22.62;45.34
65175;BME280;51761;42.126;24.752;2023-07-29T00:18:05;99261.22;;;22.57;45.95
65175;BME280;51761;42.126;24.752;2023-07-29T00:20:30;99294.66;;;22.67;46.19
65175;BME280;51761;42.126;24.752;2023-07-29T00:22:56;99290.50;;;22.63;52.99
65175;BME280;51761;42.126;24.752;2023-07-29T00:25:23;99286.34;;;22.64;54.41
65175;BME280;51761;42.126;24.752;2023-07-29T00:27:48;99296.72;;;22.61;54.56
65175;BME280;51761;42.126;24.752;2023-07-29T00:30:14;99299.50;;;22.51;50.39
65175;BME280;51761;42.126;24.752;2023-07-29T00:32:39;99310.56;;;22.38;46.35
65175;BME280;51761;42.126;24.752;2023-07-29T00:35:06;99303.78;;;22.30;50.70
65175;BME280;51761;42.126;24.752;2023-07-29T00:37:31;99305.91;;;22.40;51.69
65175;BME280;51761;42.126;24.752;2023-07-29T00:39:57;99308.53;;;22.44;50.67
65175;BME280;51761;42.126;24.752;2023-07-29T00:42:23;99308.31;;;22.52;55.14
65175;BME280;51761;42.126;24.752;2023-07-29T00:44:49;99306.22;;;22.48;51.50
65175;BME280;51761;42.126;24.752;2023-07-29T00:47:15;99285.94;;;22.29;54.13
65175;BME280;51761;42.126;24.752;2023-07-29T00:49:43;99288.81;;;22.35;56.76
65175;BME280;51761;42.126;24.752;2023-07-29T00:52:09;99302.44;;;22.20;48.65
65175;BME280;51761;42.126;24.752;2023-07-29T00:54:38;99287.94;;;22.18;56.18
65175;BME280;51761;42.126;24.752;2023-07-29T00:57:04;99299.00;;;22.10;50.27
65175;BME280;51761;42.126;24.752;2023-07-29T00:59:30;99281.78;;;21.83;47.54
65175;BME280;51761;42.126;24.752;2023-07-29T01:01:57;99288.19;;;21.72;51.63
65175;BME280;51761;42.126;24.752;2023-07-29T01:04:23;99288.97;;;21.73;50.75
65175;BME280;51761;42.126;24.752;2023-07-29T01:12:57;99289.25;;;21.18;49.09
65175;BME280;51761;42.126;24.752;2023-07-29T01:15:38;99293.84;;;21.10;52.31
65175;BME280;51761;42.126;24.752;2023-07-29T01:18:08;99296.06;;;21.01;51.44
65175;BME280;51761;42.126;24.752;2023-07-29T01:20:40;99290.59;;;20.97;51.57
65175;BME280;51761;42.126;24.752;2023-07-29T01:23:07;99269.56;;;20.84;53.12
65175;BME280;51761;42.126;24.752;2023-07-29T01:25:32;99290.91;;;20.99;56.62
65175;BME280;51761;42.126;24.752;2023-07-29T01:27:58;99294.84;;;21.07;56.60
65175;BME280;51761;42.126;24.752;2023-07-29T01:30:30;99278.81;;;21.04;54.66
65175;BME280;51761;42.126;24.752;2023-07-29T01:33:16;99297.97;;;21.09;51.09
65175;BME280;51761;42.126;24.752;2023-07-29T01:35:52;99279.09;;;21.06;59.40
65175;BME280;51761;42.126;24.752;2023-07-29T01:38:32;99297.03;;;21.18;56.00
65175;BME280;51761;42.126;24.752;2023-07-29T01:41:03;99291.28;;;21.12;53.11
65175;BME280;51761;42.126;24.752;2023-07-29T01:43:30;99300.06;;;21.14;53.85
65175;BME280;51761;42.126;24.752;2023-07-29T01:45:56;99298.59;;;21.24;58.84
65175;BME280;51761;42.126;24.752;2023-07-29T01:48:22;99275.97;;;21.04;54.69
65175;BME280;51761;42.126;24.752;2023-07-29T01:50:47;99297.38;;;21.31;54.49
65175;BME280;51761;42.126;24.752;2023-07-29T01:53:13;99301.28;;;21.33;53.72
65175;BME280;51761;42.126;24.752;2023-07-29T01:55:39;99283.44;;;21.27;53.59
65175;BME280;51761;42.126;24.752;2023-07-29T01:58:04;99275.06;;;21.49;57.55
65175;BME280;51761;42.126;24.752;2023-07-29T02:00:30;99296.94;;;21.69;57.94
65175;BME280;51761;42.126;24.752;2023-07-29T02:02:55;99300.38;;;21.78;52.77
65175;BME280;51761;42.126;24.752;2023-07-29T02:05:21;99304.31;;;21.86;56.47
65175;BME280;51761;42.126;24.752;2023-07-29T02:07:46;99303.34;;;22.00;57.63
65175;BME280;51761;42.126;24.752;2023-07-29T02:10:12;99294.72;;;21.84;54.70
65175;BME280;51761;42.126;24.752;2023-07-29T02:12:38;99310.00;;;21.86;51.96
65175;BME280;51761;42.126;24.752;2023-07-29T02:15:04;99294.94;;;21.80;59.56
65175;BME280;51761;42.126;24.752;2023-07-29T02:17:30;99324.78;;;21.96;59.08
65175;BME280;51761;42.126;24.752;2023-07-29T02:19:56;99326.38;;;22.02;58.16
65175;BME280;51761;42.126;24.752;2023-07-29T02:22:21;99311.56;;;21.93;58.19
65175;BME280;51761;42.126;24.752;2023-07-29T02:24:46;99325.88;;;22.04;59.28
65175;BME280;51761;42.126;24.752;2023-07-29T02:27:12;99323.53;;;22.02;59.20
65175;BME280;51761;42.126;24.752;2023-07-29T02:29:37;99315.44;;;21.90;50.71
65175;BME280;51761;42.126;24.752;2023-07-29T02:32:03;99316.50;;;21.92;57.65
65175;BME280;51761;42.126;24.752;2023-07-29T02:34:29;99315.91;;;21.83;55.25
65175;BME280;51761;42.126;24.752;2023-07-29T02:36:55;99301.81;;;21.63;52.81
65175;BME280;51761;42.126;24.752;2023-07-29T02:39:20;99305.75;;;21.71;54.56
65175;BME280;51761;42.126;24.752;2023-07-29T02:41:46;99310.66;;;21.70;55.31
65175;BME280;51761;42.126;24.752;2023-07-29T02:44:11;99333.66;;;21.72;54.81
65175;BME280;51761;42.126;24.752;2023-07-29T02:46:37;99339.63;;;21.74;55.83
65175;BME280;51761;42.126;24.752;2023-07-29T02:49:03;99326.94;;;21.70;53.35
65175;BME280;51761;42.126;24.752;2023-07-29T02:51:29;99315.16;;;21.57;52.85
65175;BME280;51761;42.126;24.752;2023-07-29T02:53:55;99329.59;;;21.53;54.76
65175;BME280;51761;42.126;24.752;2023-07-29T02:56:21;99325.13;;;21.41;53.62
65175;BME280;51761;42.126;24.752;2023-07-29T02:58:46;99305.41;;;21.32;53.30
65175;BME280;51761;42.126;24.752;2023-07-29T03:01:12;99324.03;;;21.39;57.38
65175;BME280;51761;42.126;24.752;2023-07-29T03:03:37;99332.28;;;21.37;56.04
65175;BME280;51761;42.126;24.752;2023-07-29T03:06:08;99327.97;;;21.41;54.95
65175;BME280;51761;42.126;24.752;2023-07-29T03:08:34;99322.34;;;21.21;54.64
65175;BME280;51761;42.126;24.752;2023-07-29T03:11:08;99333.53;;;21.30;59.43
65175;BME280;51761;42.126;24.752;2023-07-29T03:13:34;99335.69;;;21.41;58.13
65175;BME280;51761;42.126;24.752;2023-07-29T03:16:11;99338.81;;;21.43;58.55
65175;BME280;51761;42.126;24.752;2023-07-29T03:18:37;99315.38;;;21.22;57.84
65175;BME280;51761;42.126;24.752;2023-07-29T03:21:02;99327.81;;;21.25;56.15
65175;BME280;51761;42.126;24.752;2023-07-29T03:23:29;99336.47;;;21.41;53.25
65175;BME280;51761;42.126;24.752;2023-07-29T03:25:55;99337.75;;;21.40;58.09
65175;BME280;51761;42.126;24.752;2023-07-29T03:28:29;99333.84;;;21.38;59.13
65175;BME280;51761;42.126;24.752;2023-07-29T03:30:55;99343.91;;;21.33;56.55
65175;BME280;51761;42.126;24.752;2023-07-29T03:33:21;99349.72;;;21.24;53.86
65175;BME280;51761;42.126;24.752;2023-07-29T03:35:47;99326.38;;;21.09;54.96
65175;BME280;51761;42.126;24.752;2023-07-29T03:38:13;99342.41;;;21.12;56.03
65175;BME280;51761;42.126;24.752;2023-07-29T03:40:39;99337.66;;;21.04;55.02
65175;BME280;51761;42.126;24.752;2023-07-29T03:43:05;99360.22;;;21.13;56.85
65175;BME280;51761;42.126;24.752;2023-07-29T03:45:31;99354.56;;;21.13;54.71
65175;BME280;51761;42.126;24.752;2023-07-29T03:47:57;99360.50;;;21.15;56.01
65175;BME280;51761;42.126;24.752;2023-07-29T03:50:22;99359.00;;;21.19;55.93
65175;BME280;51761;42.126;24.752;2023-07-29T03:52:48;99361.09;;;21.24;56.93
65175;BME280;51761;42.126;24.752;2023-07-29T03:55:14;99358.25;;;21.24;55.06
65175;BME280;51761;42.126;24.752;2023-07-29T03:57:39;99367.75;;;21.16;57.45
65175;BME280;51761;42.126;24.752;2023-07-29T04:00:05;99371.63;;;21.18;57.20
65175;BME280;51761;42.126;24.752;2023-07-29T04:02:31;99374.91;;;21.11;55.53
65175;BME280;51761;42.126;24.752;2023-07-29T04:04:57;99366.41;;;21.11;62.00
65175;BME280;51761;42.126;24.752;2023-07-29T04:07:22;99374.34;;;21.33;56.20
65175;BME280;51761;42.126;24.752;2023-07-29T04:09:48;99365.41;;;21.14;55.20
65175;BME280;51761;42.126;24.752;2023-07-29T04:12:14;99382.38;;;21.09;56.25
65175;BME280;51761;42.126;24.752;2023-07-29T04:14:40;99362.16;;;21.01;55.15
65175;BME280;51761;42.126;24.752;2023-07-29T04:17:06;99370.25;;;21.08;59.80
65175;BME280;51761;42.126;24.752;2023-07-29T04:19:32;99390.88;;;21.09;55.67
65175;BME280;51761;42.126;24.752;2023-07-29T04:21:57;99362.84;;;20.96;55.84
65175;BME280;51761;42.126;24.752;2023-07-29T04:24:22;99371.06;;;21.14;55.40
65175;BME280;51761;42.126;24.752;2023-07-29T04:26:49;99387.63;;;21.16;55.19
65175;BME280;51761;42.126;24.752;2023-07-29T04:29:14;99384.72;;;21.10;55.80
65175;BME280;51761;42.126;24.752;2023-07-29T04:31:40;99373.00;;;21.03;55.56
65175;BME280;51761;42.126;24.752;2023-07-29T04:34:05;99393.34;;;21.21;56.43
65175;BME280;51761;42.126;24.752;2023-07-29T04:36:31;99382.09;;;21.07;54.73
65175;BME280;51761;42.126;24.752;2023-07-29T04:38:56;99392.69;;;21.06;56.86
65175;BME280;51761;42.126;24.752;2023-07-29T04:41:22;99391.78;;;21.20;57.93
65175;BME280;51761;42.126;24.752;2023-07-29T04:43:47;99399.88;;;21.27;55.68
65175;BME280;51761;42.126;24.752;2023-07-29T04:46:15;99386.63;;;21.19;54.52
65175;BME280;51761;42.126;24.752;2023-07-29T04:48:40;99396.22;;;21.47;56.50
65175;BME280;51761;42.126;24.752;2023-07-29T04:51:06;99375.75;;;21.43;57.71
65175;BME280;51761;42.126;24.752;2023-07-29T04:53:31;99394.38;;;21.69;58.01
65175;BME280;51761;42.126;24.752;2023-07-29T04:55:56;99396.47;;;21.74;54.97
65175;BME280;51761;42.126;24.752;2023-07-29T04:58:22;99377.41;;;21.80;53.65
65175;BME280;51761;42.126;24.752;2023-07-29T05:00:47;99389.69;;;21.97;53.23
65175;BME280;51761;42.126;24.752;2023-07-29T05:03:13;99397.25;;;22.06;52.91
65175;BME280;51761;42.126;24.752;2023-07-29T05:05:38;99384.91;;;22.14;55.06
65175;BME280;51761;42.126;24.752;2023-07-29T05:08:04;99397.84;;;22.15;55.17
65175;BME280;51761;42.126;24.752;2023-07-29T05:10:29;99401.03;;;22.28;51.25
65175;BME280;51761;42.126;24.752;2023-07-29T05:12:55;99405.16;;;22.27;54.08
65175;BME280;51761;42.126;24.752;2023-07-29T05:15:20;99391.41;;;22.20;54.00
65175;BME280;51761;42.126;24.752;2023-07-29T05:17:46;99403.88;;;22.28;54.84
65175;BME280;51761;42.126;24.752;2023-07-29T05:20:11;99403.78;;;22.48;56.05
65175;BME280;51761;42.126;24.752;2023-07-29T05:22:37;99382.56;;;22.49;53.62
65175;BME280;51761;42.126;24.752;2023-07-29T05:25:02;99409.59;;;22.75;51.87
65175;BME280;51761;42.126;24.752;2023-07-29T05:27:28;99390.19;;;22.74;51.99
65175;BME280;51761;42.126;24.752;2023-07-29T05:29:53;99388.44;;;22.87;50.84
65175;BME280;51761;42.126;24.752;2023-07-29T05:32:19;99392.09;;;23.04;52.12
65175;BME280;51761;42.126;24.752;2023-07-29T05:34:44;99407.72;;;23.14;48.70
65175;BME280;51761;42.126;24.752;2023-07-29T05:37:10;99416.06;;;23.29;49.32
65175;BME280;51761;42.126;24.752;2023-07-29T05:39:35;99411.13;;;23.29;49.42
65175;BME280;51761;42.126;24.752;2023-07-29T05:42:01;99408.81;;;23.39;50.64
65175;BME280;51761;42.126;24.752;2023-07-29T05:44:29;99419.47;;;23.49;50.12
65175;BME280;51761;42.126;24.752;2023-07-29T05:46:56;99424.94;;;23.64;49.22
65175;BME280;51761;42.126;24.752;2023-07-29T05:49:21;99419.22;;;23.75;49.29
65175;BME280;51761;42.126;24.752;2023-07-29T05:51:47;99427.31;;;23.87;47.63
65175;BME280;51761;42.126;24.752;2023-07-29T05:54:12;99422.91;;;23.97;47.93
65175;BME280;51761;42.126;24.752;2023-07-29T05:56:38;99426.25;;;24.07;48.07
65175;BME280;51761;42.126;24.752;2023-07-29T05:59:03;99423.41;;;24.07;48.72
65175;BME280;51761;42.126;24.752;2023-07-29T06:01:29;99416.41;;;24.08;47.78
65175;BME280;51761;42.126;24.752;2023-07-29T06:03:54;99420.03;;;24.24;45.42
65175;BME280;51761;42.126;24.752;2023-07-29T06:06:20;99412.50;;;24.27;46.90
65175;BME280;51761;42.126;24.752;2023-07-29T06:08:45;99414.84;;;24.39;47.43
65175;BME280;51761;42.126;24.752;2023-07-29T06:11:11;99405.72;;;24.46;46.58
65175;BME280;51761;42.126;24.752;2023-07-29T06:13:36;99400.25;;;24.59;47.33
65175;BME280;51761;42.126;24.752;2023-07-29T06:16:02;99418.38;;;24.84;45.08
65175;BME280;51761;42.126;24.752;2023-07-29T06:18:27;99420.09;;;25.03;45.96
65175;BME280;51761;42.126;24.752;2023-07-29T06:20:52;99417.19;;;25.09;44.28
65175;BME280;51761;42.126;24.752;2023-07-29T06:23:18;99402.72;;;25.01;43.92
65175;BME280;51761;42.126;24.752;2023-07-29T06:25:43;99420.78;;;25.31;44.32
65175;BME280;51761;42.126;24.752;2023-07-29T06:28:09;99424.53;;;25.50;43.85
65175;BME280;51761;42.126;24.752;2023-07-29T06:30:35;99419.34;;;25.54;43.88
65175;BME280;51761;42.126;24.752;2023-07-29T06:33:01;99419.16;;;25.76;43.22
65175;BME280;51761;42.126;24.752;2023-07-29T06:35:28;99418.88;;;25.85;44.52
65175;BME280;51761;42.126;24.752;2023-07-29T06:37:54;99414.22;;;26.11;43.40
65175;BME280;51761;42.126;24.752;2023-07-29T06:40:19;99414.44;;;26.19;43.10
65175;BME280;51761;42.126;24.752;2023-07-29T06:42:45;99394.34;;;26.24;42.64
65175;BME280;51761;42.126;24.752;2023-07-29T06:45:10;99415.44;;;26.51;41.15
65175;BME280;51761;42.126;24.752;2023-07-29T06:47:37;99410.31;;;26.68;39.46
65175;BME280;51761;42.126;24.752;2023-07-29T06:50:02;99400.94;;;26.67;39.44
65175;BME280;51761;42.126;24.752;2023-07-29T06:52:28;99406.84;;;26.75;39.85
65175;BME280;51761;42.126;24.752;2023-07-29T06:54:53;99417.56;;;26.93;40.19
65175;BME280;51761;42.126;24.752;2023-07-29T06:57:19;99410.81;;;27.14;39.94
65175;BME280;51761;42.126;24.752;2023-07-29T06:59:46;99421.75;;;27.53;39.40
65175;BME280;51761;42.126;24.752;2023-07-29T07:02:11;99402.53;;;27.97;37.22
65175;BME280;51761;42.126;24.752;2023-07-29T07:04:37;99413.97;;;28.86;35.73
65175;BME280;51761;42.126;24.752;2023-07-29T07:07:03;99398.47;;;30.08;34.25
65175;BME280;51761;42.126;24.752;2023-07-29T07:09:28;99417.31;;;31.41;31.58
65175;BME280;51761;42.126;24.752;2023-07-29T07:11:53;99411.03;;;32.53;29.89
65175;BME280;51761;42.126;24.752;2023-07-29T07:14:19;99408.66;;;33.58;28.58
65175;BME280;51761;42.126;24.752;2023-07-29T07:16:44;99394.56;;;34.50;28.09
65175;BME280;51761;42.126;24.752;2023-07-29T07:19:10;99404.88;;;35.53;25.63
65175;BME280;51761;42.126;24.752;2023-07-29T07:21:36;99391.19;;;36.06;25.18
65175;BME280;51761;42.126;24.752;2023-07-29T07:24:02;99402.59;;;36.21;24.69
65175;BME280;51761;42.126;24.752;2023-07-29T07:26:27;99403.59;;;36.78;24.77
65175;BME280;51761;42.126;24.752;2023-07-29T07:28:53;99405.84;;;37.44;23.80
65175;BME280;51761;42.126;24.752;2023-07-29T07:31:18;99395.41;;;37.51;23.81
65175;BME280;51761;42.126;24.752;2023-07-29T07:33:44;99394.34;;;38.54;22.12
65175;BME280;51761;42.126;24.752;2023-07-29T07:36:09;99400.16;;;38.33;22.27
65175;BME280;51761;42.126;24.752;2023-07-29T07:38:35;99387.84;;;38.35;22.45
65175;BME280;51761;42.126;24.752;2023-07-29T07:41:00;99388.44;;;38.64;21.71
65175;BME280;51761;42.126;24.752;2023-07-29T07:43:26;99390.38;;;38.80;21.77
65175;BME280;51761;42.126;24.752;2023-07-29T07:45:57;99371.84;;;38.66;21.63
65175;BME280;51761;42.126;24.752;2023-07-29T07:48:24;99381.22;;;38.95;21.61
65175;BME280;51761;42.126;24.752;2023-07-29T07:50:49;99379.72;;;38.33;22.16
65175;BME280;51761;42.126;24.752;2023-07-29T07:53:15;99378.94;;;38.63;21.69
65175;BME280;51761;42.126;24.752;2023-07-29T07:55:40;99380.03;;;39.10;22.17
65175;BME280;51761;42.126;24.752;2023-07-29T07:58:06;99365.41;;;38.89;21.84
65175;BME280;51761;42.126;24.752;2023-07-29T08:00:31;99373.41;;;39.09;21.68
65175;BME280;51761;42.126;24.752;2023-07-29T08:02:57;99375.84;;;39.34;21.41
65175;BME280;51761;42.126;24.752;2023-07-29T08:05:22;99355.41;;;39.66;21.08
65175;BME280;51761;42.126;24.752;2023-07-29T08:07:48;99359.66;;;39.54;21.03
65175;BME280;51761;42.126;24.752;2023-07-29T08:10:13;99359.78;;;39.99;20.28
65175;BME280;51761;42.126;24.752;2023-07-29T08:12:39;99360.59;;;40.11;20.97
65175;BME280;51761;42.126;24.752;2023-07-29T08:15:05;99349.41;;;40.19;20.93
65175;BME280;51761;42.126;24.752;2023-07-29T08:17:30;99337.00;;;39.98;21.29
65175;BME280;51761;42.126;24.752;2023-07-29T08:19:56;99353.25;;;40.56;21.18
65175;BME280;51761;42.126;24.752;2023-07-29T08:22:21;99353.03;;;39.86;21.41
65175;BME280;51761;42.126;24.752;2023-07-29T08:24:47;99339.25;;;39.65;21.20
65175;BME280;51761;42.126;24.752;2023-07-29T08:27:12;99332.84;;;39.25;21.67
65175;BME280;51761;42.126;24.752;2023-07-29T08:29:38;99347.88;;;39.63;21.31
65175;BME280;51761;42.126;24.752;2023-07-29T08:32:04;99340.19;;;39.47;21.78
65175;BME280;51761;42.126;24.752;2023-07-29T08:34:30;99343.94;;;40.03;21.32
65175;BME280;51761;42.126;24.752;2023-07-29T08:36:55;99336.34;;;39.77;21.60
65175;BME280;51761;42.126;24.752;2023-07-29T08:39:20;99318.84;;;39.44;21.77
65175;BME280;51761;42.126;24.752;2023-07-29T08:42:07;99329.31;;;39.59;21.58
65175;BME280;51761;42.126;24.752;2023-07-29T08:44:41;99331.03;;;39.73;21.87
65175;BME280;51761;42.126;24.752;2023-07-29T08:47:08;99326.16;;;39.66;21.28
65175;BME280;51761;42.126;24.752;2023-07-29T08:49:34;99309.47;;;39.25;21.19
65175;BME280;51761;42.126;24.752;2023-07-29T08:51:59;99315.75;;;39.10;22.17
65175;BME280;51761;42.126;24.752;2023-07-29T08:54:26;99308.34;;;38.97;21.66
65175;BME280;51761;42.126;24.752;2023-07-29T08:56:52;99308.44;;;39.53;21.31
65175;BME280;51761;42.126;24.752;2023-07-29T08:59:19;99271.44;;;38.81;21.90
65175;BME280;51761;42.126;24.752;2023-07-29T09:01:44;99297.97;;;38.64;21.17
65175;BME280;51761;42.126;24.752;2023-07-29T09:04:10;99317.56;;;38.73;21.90
65175;BME280;51761;42.126;24.752;2023-07-29T09:06:36;99314.28;;;38.36;22.86
65175;BME280;51761;42.126;24.752;2023-07-29T09:09:06;99316.91;;;38.32;22.55
65175;BME280;51761;42.126;24.752;2023-07-29T09:11:32;99306.91;;;38.35;22.13
65175;BME280;51761;42.126;24.752;2023-07-29T09:13:58;99300.44;;;38.07;21.88
65175;BME280;51761;42.126;24.752;2023-07-29T09:16:24;99296.13;;;38.38;21.97
65175;BME280;51761;42.126;24.752;2023-07-29T09:18:51;99303.78;;;38.64;22.21
65175;BME280;51761;42.126;24.752;2023-07-29T09:21:23;99295.53;;;38.81;21.70
65175;BME280;51761;42.126;24.752;2023-07-29T09:23:50;99297.22;;;38.63;21.41
65175;BME280;51761;42.126;24.752;2023-07-29T09:26:25;99285.84;;;38.37;21.41
65175;BME280;51761;42.126;24.752;2023-07-29T09:28:53;99284.41;;;38.47;20.18
65175;BME280;51761;42.126;24.752;2023-07-29T09:31:20;99282.88;;;38.46;20.56
65175;BME280;51761;42.126;24.752;2023-07-29T09:33:46;99278.84;;;38.51;21.42
65175;BME280;51761;42.126;24.752;2023-07-29T09:36:12;99264.13;;;38.49;20.57
65175;BME280;51761;42.126;24.752;2023-07-29T09:38:37;99272.94;;;38.61;20.38
65175;BME280;51761;42.126;24.752;2023-07-29T09:41:03;99263.94;;;38.26;20.98
65175;BME280;51761;42.126;24.752;2023-07-29T09:43:30;99254.19;;;38.13;20.68
65175;BME280;51761;42.126;24.752;2023-07-29T09:46:02;99255.88;;;38.16;21.56
65175;BME280;51761;42.126;24.752;2023-07-29T09:48:32;99247.22;;;37.97;22.14
65175;BME280;51761;42.126;24.752;2023-07-29T09:50:58;99246.94;;;37.93;21.62
65175;BME280;51761;42.126;24.752;2023-07-29T09:53:24;99244.09;;;37.74;21.54
65175;BME280;51761;42.126;24.752;2023-07-29T09:55:50;99254.84;;;37.71;21.21
65175;BME280;51761;42.126;24.752;2023-07-29T09:58:27;99251.50;;;37.65;21.14
65175;BME280;51761;42.126;24.752;2023-07-29T10:00:53;99250.56;;;37.63;20.38
65175;BME280;51761;42.126;24.752;2023-07-29T10:03:22;99242.22;;;37.29;20.75
65175;BME280;51761;42.126;24.752;2023-07-29T10:05:48;99245.72;;;37.46;20.75
65175;BME280;51761;42.126;24.752;2023-07-29T10:08:13;99245.31;;;37.71;20.47
65175;BME280;51761;42.126;24.752;2023-07-29T10:10:42;99240.78;;;37.58;19.85
65175;BME280;51761;42.126;24.752;2023-07-29T10:13:09;99240.44;;;38.04;20.20
65175;BME280;51761;42.126;24.752;2023-07-29T10:15:35;99239.66;;;37.73;20.49
65175;BME280;51761;42.126;24.752;2023-07-29T10:18:01;99237.88;;;37.58;19.80
65175;BME280;51761;42.126;24.752;2023-07-29T10:20:28;99222.88;;;37.83;19.94
65175;BME280;51761;42.126;24.752;2023-07-29T10:22:56;99223.13;;;37.96;21.35
65175;BME280;51761;42.126;24.752;2023-07-29T10:25:25;99207.59;;;37.73;20.54
65175;BME280;51761;42.126;24.752;2023-07-29T10:28:06;99223.75;;;37.95;20.65
65175;BME280;51761;42.126;24.752;2023-07-29T10:30:31;99214.41;;;37.87;21.42
65175;BME280;51761;42.126;24.752;2023-07-29T10:32:59;99223.09;;;37.66;20.87
65175;BME280;51761;42.126;24.752;2023-07-29T10:35:26;99216.25;;;37.42;20.89
65175;BME280;51761;42.126;24.752;2023-07-29T10:37:53;99213.81;;;37.39;21.70
65175;BME280;51761;42.126;24.752;2023-07-29T10:40:19;99199.44;;;37.71;21.35
65175;BME280;51761;42.126;24.752;2023-07-29T10:43:09;99215.13;;;37.97;20.61
65175;BME280;51761;42.126;24.752;2023-07-29T10:45:39;99188.91;;;37.66;20.67
65175;BME280;51761;42.126;24.752;2023-07-29T10:48:11;99202.75;;;37.87;20.67
65175;BME280;51761;42.126;24.752;2023-07-29T10:50:38;99181.06;;;37.99;21.06
65175;BME280;51761;42.126;24.752;2023-07-29T10:53:04;99198.84;;;38.24;21.01
65175;BME280;51761;42.126;24.752;2023-07-29T10:55:33;99194.13;;;38.40;19.98
65175;BME280;51761;42.126;24.752;2023-07-29T11:00:34;99187.59;;;38.30;19.14
65175;BME280;51761;42.126;24.752;2023-07-29T11:03:05;99178.47;;;37.94;19.95
65175;BME280;51761;42.126;24.752;2023-07-29T11:08:22;99141.69;;;37.89;20.79
65175;BME280;51761;42.126;24.752;2023-07-29T11:11:17;99178.09;;;38.29;20.07
65175;BME280;51761;42.126;24.752;2023-07-29T11:13:43;99179.00;;;38.32;20.52
65175;BME280;51761;42.126;24.752;2023-07-29T11:16:10;99179.47;;;38.08;20.52
65175;BME280;51761;42.126;24.752;2023-07-29T11:18:35;99176.16;;;38.43;20.03
65175;BME280;51761;42.126;24.752;2023-07-29T11:21:02;99169.06;;;38.46;20.39
65175;BME280;51761;42.126;24.752;2023-07-29T11:23:37;99169.72;;;38.56;20.71
65175;BME280;51761;42.126;24.752;2023-07-29T11:26:04;99162.38;;;38.55;20.09
65175;BME280;51761;42.126;24.752;2023-07-29T11:28:30;99158.22;;;38.70;20.70
65175;BME280;51761;42.126;24.752;2023-07-29T11:30:56;99119.59;;;38.48;20.81
65175;BME280;51761;42.126;24.752;2023-07-29T11:33:27;99136.69;;;38.42;20.38
65175;BME280;51761;42.126;24.752;2023-07-29T11:35:54;99146.97;;;38.22;21.50
65175;BME280;51761;42.126;24.752;2023-07-29T11:38:20;99131.56;;;37.90;20.66
65175;BME280;51761;42.126;24.752;2023-07-29T11:41:00;99146.22;;;37.71;20.72
65175;BME280;51761;42.126;24.752;2023-07-29T11:43:28;99138.72;;;37.68;21.15
65175;BME280;51761;42.126;24.752;2023-07-29T11:45:54;99134.63;;;37.61;20.50
65175;BME280;51761;42.126;24.752;2023-07-29T11:48:31;99137.53;;;37.21;20.35
65175;BME280;51761;42.126;24.752;2023-07-29T11:50:57;99123.25;;;36.76;20.52
65175;BME280;51761;42.126;24.752;2023-07-29T11:53:26;99131.50;;;36.89;20.78
65175;BME280;51761;42.126;24.752;2023-07-29T11:55:52;99127.09;;;36.69;21.08
65175;BME280;51761;42.126;24.752;2023-07-29T11:58:18;99119.44;;;36.54;20.54
65175;BME280;51761;42.126;24.752;2023-07-29T12:00:44;99122.22;;;36.62;20.83
65175;BME280;51761;42.126;24.752;2023-07-29T12:03:09;99104.72;;;36.52;21.36
65175;BME280;51761;42.126;24.752;2023-07-29T12:05:36;99105.06;;;36.56;20.99
65175;BME280;51761;42.126;24.752;2023-07-29T12:08:01;99116.38;;;36.62;21.07
65175;BME280;51761;42.126;24.752;2023-07-29T12:10:27;99108.00;;;37.06;21.71
65175;BME280;51761;42.126;24.752;2023-07-29T12:12:53;99111.31;;;37.21;20.40
65175;BME280;51761;42.126;24.752;2023-07-29T12:15:29;99102.59;;;37.21;20.58
65175;BME280;51761;42.126;24.752;2023-07-29T12:17:56;99117.88;;;37.31;19.96
65175;BME280;51761;42.126;24.752;2023-07-29T12:20:22;99110.53;;;37.30;20.10
65175;BME280;51761;42.126;24.752;2023-07-29T12:22:55;99111.09;;;37.48;20.27
65175;BME280;51761;42.126;24.752;2023-07-29T12:25:22;99099.44;;;37.38;19.99
65175;BME280;51761;42.126;24.752;2023-07-29T12:27:47;99089.78;;;37.45;19.75
65175;BME280;51761;42.126;24.752;2023-07-29T12:30:13;99090.53;;;37.46;19.93
65175;BME280;51761;42.126;24.752;2023-07-29T12:32:45;99090.13;;;37.61;20.04
65175;BME280;51761;42.126;24.752;2023-07-29T12:35:12;99081.06;;;37.87;19.29
65175;BME280;51761;42.126;24.752;2023-07-29T12:37:37;99072.66;;;37.82;19.77
65175;BME280;51761;42.126;24.752;2023-07-29T12:40:04;99074.47;;;37.87;19.08
65175;BME280;51761;42.126;24.752;2023-07-29T12:42:30;99065.75;;;38.08;18.74
65175;BME280;51761;42.126;24.752;2023-07-29T12:44:55;99073.38;;;37.92;18.73
65175;BME280;51761;42.126;24.752;2023-07-29T12:47:21;99073.13;;;37.27;19.06
65175;BME280;51761;42.126;24.752;2023-07-29T12:49:46;99063.03;;;37.18;18.93
65175;BME280;51761;42.126;24.752;2023-07-29T12:52:12;99077.78;;;36.61;19.41
65175;BME280;51761;42.126;24.752;2023-07-29T12:54:37;99068.00;;;36.29;20.03
65175;BME280;51761;42.126;24.752;2023-07-29T12:57:03;99066.19;;;36.14;20.47
65175;BME280;51761;42.126;24.752;2023-07-29T12:59:28;99072.13;;;36.07;19.52